sensor_id;sensor_type;location;lat;lon;timestamp;P1;durP1;ratioP1;P2;durP2;ratioP2
31306;SDS011;17935;51.120;13.132;2023-08-01T00:00:47;13.52;;;4.15;;
31306;SDS011;17935;51.120;13.132;2023-08-01T00:03:13;8.15;;;4.72;;
31306;SDS011;17935;51.120;13.132;2023-08-01T00:05:40;11.75;;;4.20;;
31306;SDS011;17935;51.120;13.132;2023-08-01T00:08:10;7.53;;;4.00;;
31306;SDS011;17935;51.120;13.132;2023-08-01T00:10:40;9.05;;;4.10;;
31306;SDS011;17935;51.120;13.132;2023-08-01T00:13:06;10.73;;;4.43;;
31306;SDS011;17935;51.120;13.132;2023-08-01T00:15:33;8.38;;;4.18;;
31306;SDS011;17935;51.120;13.132;2023-08-01T00:17:59;7.88;;;3.97;;
31306;SDS011;17935;51.120;13.132;2023-08-01T00:20:25;9.27;;;4.03;;
31306;SDS011;17935;51.120;13.132;2023-08-01T00:22:50;9.07;;;4.07;;
31306;SDS011;17935;51.120;13.132;2023-08-01T00:25:17;7.25;;;3.33;;
31306;SDS011;17935;51.120;13.132;2023-08-01T00:27:43;6.05;;;4.35;;
31306;SDS011;17935;51.120;13.132;2023-08-01T00:30:09;7.78;;;3.70;;
31306;SDS011;17935;51.120;13.132;2023-08-01T00:32:35;8.43;;;3.88;;
31306;SDS011;17935;51.120;13.132;2023-08-01T00:35:02;5.72;;;3.70;;
31306;SDS011;17935;51.120;13.132;2023-08-01T00:37:28;6.07;;;3.67;;
31306;SDS011;17935;51.120;13.132;2023-08-01T00:39:54;12.52;;;3.88;;
31306;SDS011;17935;51.120;13.132;2023-08-01T00:42:20;5.05;;;3.40;;
31306;SDS011;17935;51.120;13.132;2023-08-01T00:44:46;9.30;;;4.00;;
31306;SDS011;17935;51.120;13.132;2023-08-01T00:47:13;4.25;;;3.33;;
31306;SDS011;17935;51.120;13.132;2023-08-01T00:49:39;7.45;;;3.65;;
31306;SDS011;17935;51.120;13.132;2023-08-01T00:52:06;8.00;;;3.90;;
31306;SDS011;17935;51.120;13.132;2023-08-01T00:54:32;10.27;;;3.78;;
31306;SDS011;17935;51.120;13.132;2023-08-01T00:57:02;5.95;;;3.40;;
31306;SDS011;17935;51.120;13.132;2023-08-01T00:59:28;11.13;;;4.60;;
31306;SDS011;17935;51.120;13.132;2023-08-01T01:01:54;6.07;;;3.28;;
31306;SDS011;17935;51.120;13.132;2023-08-01T01:04:20;9.65;;;3.70;;
31306;SDS011;17935;51.120;13.132;2023-08-01T01:06:51;8.00;;;3.13;;
31306;SDS011;17935;51.120;13.132;2023-08-01T01:09:18;6.90;;;3.30;;
31306;SDS011;17935;51.120;13.132;2023-08-01T01:11:45;5.80;;;3.83;;
31306;SDS011;17935;51.120;13.132;2023-08-01T01:14:11;9.07;;;3.85;;
31306;SDS011;17935;51.120;13.132;2023-08-01T01:16:37;10.90;;;4.78;;
31306;SDS011;17935;51.120;13.132;2023-08-01T01:19:07;9.07;;;4.07;;
31306;SDS011;17935;51.120;13.132;2023-08-01T01:21:34;6.85;;;3.78;;
31306;SDS011;17935;51.120;13.132;2023-08-01T01:24:02;9.00;;;4.63;;
31306;SDS011;17935;51.120;13.132;2023-08-01T01:26:28;6.97;;;4.05;;
31306;SDS011;17935;51.120;13.132;2023-08-01T01:28:54;7.93;;;4.68;;
31306;SDS011;17935;51.120;13.132;2023-08-01T01:31:20;7.47;;;4.40;;
31306;SDS011;17935;51.120;13.132;2023-08-01T01:33:46;8.63;;;4.97;;
31306;SDS011;17935;51.120;13.132;2023-08-01T01:36:12;7.88;;;3.88;;
31306;SDS011;17935;51.120;13.132;2023-08-01T01:38:38;7.53;;;4.80;;
31306;SDS011;17935;51.120;13.132;2023-08-01T01:41:04;6.55;;;4.57;;
31306;SDS011;17935;51.120;13.132;2023-08-01T01:43:30;9.05;;;4.93;;
31306;SDS011;17935;51.120;13.132;2023-08-01T01:45:56;7.15;;;3.95;;
31306;SDS011;17935;51.120;13.132;2023-08-01T01:48:22;11.60;;;4.80;;
31306;SDS011;17935;51.120;13.132;2023-08-01T01:50:48;10.73;;;4.88;;
31306;SDS011;17935;51.120;13.132;2023-08-01T01:53:14;7.03;;;4.60;;
31306;SDS011;17935;51.120;13.132;2023-08-01T01:55:40;7.97;;;4.75;;
31306;SDS011;17935;51.120;13.132;2023-08-01T01:58:06;10.48;;;5.25;;
31306;SDS011;17935;51.120;13.132;2023-08-01T02:00:32;10.10;;;4.68;;
31306;SDS011;17935;51.120;13.132;2023-08-01T02:02:58;11.45;;;4.38;;
31306;SDS011;17935;51.120;13.132;2023-08-01T02:05:25;10.38;;;5.05;;
31306;SDS011;17935;51.120;13.132;2023-08-01T02:07:51;11.90;;;4.97;;
31306;SDS011;17935;51.120;13.132;2023-08-01T02:10:17;8.73;;;4.70;;
31306;SDS011;17935;51.120;13.132;2023-08-01T02:12:43;9.35;;;4.60;;
31306;SDS011;17935;51.120;13.132;2023-08-01T02:15:09;11.02;;;4.78;;
31306;SDS011;17935;51.120;13.132;2023-08-01T02:17:35;11.23;;;4.85;;
31306;SDS011;17935;51.120;13.132;2023-08-01T02:20:01;8.13;;;4.40;;
31306;SDS011;17935;51.120;13.132;2023-08-01T02:22:27;8.93;;;4.88;;
31306;SDS011;17935;51.120;13.132;2023-08-01T02:24:53;10.68;;;4.45;;
31306;SDS011;17935;51.120;13.132;2023-08-01T02:27:19;7.72;;;4.25;;
31306;SDS011;17935;51.120;13.132;2023-08-01T02:29:45;5.22;;;3.83;;
31306;SDS011;17935;51.120;13.132;2023-08-01T02:32:11;7.93;;;4.68;;
31306;SDS011;17935;51.120;13.132;2023-08-01T02:34:37;10.50;;;4.45;;
31306;SDS011;17935;51.120;13.132;2023-08-01T02:37:03;8.90;;;4.60;;
31306;SDS011;17935;51.120;13.132;2023-08-01T02:39:29;8.73;;;4.68;;
31306;SDS011;17935;51.120;13.132;2023-08-01T02:41:55;10.70;;;4.50;;
31306;SDS011;17935;51.120;13.132;2023-08-01T02:44:21;11.98;;;4.18;;
31306;SDS011;17935;51.120;13.132;2023-08-01T02:46:47;6.78;;;4.00;;
31306;SDS011;17935;51.120;13.132;2023-08-01T02:49:13;4.43;;;3.33;;
31306;SDS011;17935;51.120;13.132;2023-08-01T02:51:39;10.32;;;3.83;;
31306;SDS011;17935;51.120;13.132;2023-08-01T02:54:05;6.32;;;3.75;;
31306;SDS011;17935;51.120;13.132;2023-08-01T02:56:31;8.00;;;3.92;;
31306;SDS011;17935;51.120;13.132;2023-08-01T02:58:57;6.30;;;3.95;;
31306;SDS011;17935;51.120;13.132;2023-08-01T03:01:23;5.15;;;3.63;;
31306;SDS011;17935;51.120;13.132;2023-08-01T03:03:49;6.05;;;4.07;;
31306;SDS011;17935;51.120;13.132;2023-08-01T03:06:15;6.07;;;3.85;;
31306;SDS011;17935;51.120;13.132;2023-08-01T03:08:41;8.05;;;4.18;;
31306;SDS011;17935;51.120;13.132;2023-08-01T03:11:07;6.30;;;3.45;;
31306;SDS011;17935;51.120;13.132;2023-08-01T03:13:33;9.50;;;3.63;;
31306;SDS011;17935;51.120;13.132;2023-08-01T03:15:59;7.18;;;3.67;;
31306;SDS011;17935;51.120;13.132;2023-08-01T03:18:25;10.38;;;4.03;;
31306;SDS011;17935;51.120;13.132;2023-08-01T03:20:51;7.40;;;3.90;;
31306;SDS011;17935;51.120;13.132;2023-08-01T03:23:17;8.63;;;3.95;;
31306;SDS011;17935;51.120;13.132;2023-08-01T03:25:43;7.20;;;3.90;;
31306;SDS011;17935;51.120;13.132;2023-08-01T03:28:09;7.15;;;4.10;;
31306;SDS011;17935;51.120;13.132;2023-08-01T03:30:35;6.13;;;4.03;;
31306;SDS011;17935;51.120;13.132;2023-08-01T03:33:01;5.82;;;3.90;;
31306;SDS011;17935;51.120;13.132;2023-08-01T03:35:27;9.13;;;4.15;;
31306;SDS011;17935;51.120;13.132;2023-08-01T03:37:53;6.72;;;3.80;;
31306;SDS011;17935;51.120;13.132;2023-08-01T03:40:19;8.02;;;4.13;;
31306;SDS011;17935;51.120;13.132;2023-08-01T03:42:48;5.28;;;3.38;;
31306;SDS011;17935;51.120;13.132;2023-08-01T03:45:14;7.25;;;3.25;;
31306;SDS011;17935;51.120;13.132;2023-08-01T03:47:40;9.57;;;3.35;;
31306;SDS011;17935;51.120;13.132;2023-08-01T03:50:06;6.97;;;3.42;;
31306;SDS011;17935;51.120;13.132;2023-08-01T03:52:32;8.45;;;3.35;;
31306;SDS011;17935;51.120;13.132;2023-08-01T03:54:58;4.50;;;3.05;;
31306;SDS011;17935;51.120;13.132;2023-08-01T03:57:24;4.32;;;2.90;;
31306;SDS011;17935;51.120;13.132;2023-08-01T03:59:50;11.07;;;3.30;;
31306;SDS011;17935;51.120;13.132;2023-08-01T04:02:16;3.97;;;3.00;;
31306;SDS011;17935;51.120;13.132;2023-08-01T04:04:43;6.63;;;2.95;;
31306;SDS011;17935;51.120;13.132;2023-08-01T04:07:09;3.50;;;2.72;;
31306;SDS011;17935;51.120;13.132;2023-08-01T04:09:35;4.40;;;2.90;;
31306;SDS011;17935;51.120;13.132;2023-08-01T04:12:03;3.92;;;2.55;;
31306;SDS011;17935;51.120;13.132;2023-08-01T04:14:31;6.15;;;3.15;;
31306;SDS011;17935;51.120;13.132;2023-08-01T04:16:57;4.35;;;2.78;;
31306;SDS011;17935;51.120;13.132;2023-08-01T04:19:23;6.18;;;2.67;;
31306;SDS011;17935;51.120;13.132;2023-08-01T04:21:49;4.13;;;3.00;;
31306;SDS011;17935;51.120;13.132;2023-08-01T04:24:16;7.63;;;2.90;;
31306;SDS011;17935;51.120;13.132;2023-08-01T04:26:42;3.97;;;2.35;;
31306;SDS011;17935;51.120;13.132;2023-08-01T04:29:08;4.20;;;2.72;;
31306;SDS011;17935;51.120;13.132;2023-08-01T04:31:34;5.57;;;2.15;;
31306;SDS011;17935;51.120;13.132;2023-08-01T04:34:00;5.43;;;3.33;;
31306;SDS011;17935;51.120;13.132;2023-08-01T04:36:26;3.55;;;2.42;;
31306;SDS011;17935;51.120;13.132;2023-08-01T04:38:52;5.30;;;2.10;;
31306;SDS011;17935;51.120;13.132;2023-08-01T04:41:18;5.05;;;2.55;;
31306;SDS011;17935;51.120;13.132;2023-08-01T04:43:44;5.05;;;2.65;;
31306;SDS011;17935;51.120;13.132;2023-08-01T04:46:10;5.15;;;2.70;;
31306;SDS011;17935;51.120;13.132;2023-08-01T04:48:36;5.05;;;2.25;;
31306;SDS011;17935;51.120;13.132;2023-08-01T04:51:02;3.83;;;2.78;;
31306;SDS011;17935;51.120;13.132;2023-08-01T04:53:28;3.15;;;2.53;;
31306;SDS011;17935;51.120;13.132;2023-08-01T04:55:54;5.40;;;2.67;;
31306;SDS011;17935;51.120;13.132;2023-08-01T04:58:20;3.92;;;2.30;;
31306;SDS011;17935;51.120;13.132;2023-08-01T05:00:46;3.03;;;2.08;;
31306;SDS011;17935;51.120;13.132;2023-08-01T05:03:12;3.80;;;2.35;;
31306;SDS011;17935;51.120;13.132;2023-08-01T05:05:38;4.05;;;2.17;;
31306;SDS011;17935;51.120;13.132;2023-08-01T05:08:04;4.10;;;2.47;;
31306;SDS011;17935;51.120;13.132;2023-08-01T05:10:30;6.72;;;1.95;;
31306;SDS011;17935;51.120;13.132;2023-08-01T05:12:56;3.42;;;2.28;;
31306;SDS011;17935;51.120;13.132;2023-08-01T05:15:22;6.72;;;2.30;;
31306;SDS011;17935;51.120;13.132;2023-08-01T05:17:48;4.00;;;1.92;;
31306;SDS011;17935;51.120;13.132;2023-08-01T05:20:13;3.10;;;1.80;;
31306;SDS011;17935;51.120;13.132;2023-08-01T05:22:40;4.97;;;2.60;;
31306;SDS011;17935;51.120;13.132;2023-08-01T05:25:06;2.47;;;1.98;;
31306;SDS011;17935;51.120;13.132;2023-08-01T05:27:32;6.55;;;1.70;;
31306;SDS011;17935;51.120;13.132;2023-08-01T05:29:59;2.85;;;1.70;;
31306;SDS011;17935;51.120;13.132;2023-08-01T05:32:25;1.95;;;1.55;;
31306;SDS011;17935;51.120;13.132;2023-08-01T05:34:51;2.80;;;1.67;;
31306;SDS011;17935;51.120;13.132;2023-08-01T05:37:17;4.15;;;1.80;;
31306;SDS011;17935;51.120;13.132;2023-08-01T05:39:43;1.88;;;1.63;;
31306;SDS011;17935;51.120;13.132;2023-08-01T05:42:09;3.95;;;2.22;;
31306;SDS011;17935;51.120;13.132;2023-08-01T05:44:35;2.75;;;1.88;;
31306;SDS011;17935;51.120;13.132;2023-08-01T05:47:01;2.88;;;2.00;;
31306;SDS011;17935;51.120;13.132;2023-08-01T05:49:27;5.15;;;1.75;;
31306;SDS011;17935;51.120;13.132;2023-08-01T05:51:54;4.72;;;1.83;;
31306;SDS011;17935;51.120;13.132;2023-08-01T05:54:21;4.32;;;2.00;;
31306;SDS011;17935;51.120;13.132;2023-08-01T05:56:46;4.22;;;1.73;;
31306;SDS011;17935;51.120;13.132;2023-08-01T05:59:12;1.85;;;1.40;;
31306;SDS011;17935;51.120;13.132;2023-08-01T06:01:39;1.63;;;1.38;;
31306;SDS011;17935;51.120;13.132;2023-08-01T06:04:05;1.70;;;1.60;;
31306;SDS011;17935;51.120;13.132;2023-08-01T06:06:31;4.35;;;1.83;;
31306;SDS011;17935;51.120;13.132;2023-08-01T06:08:57;5.75;;;1.77;;
31306;SDS011;17935;51.120;13.132;2023-08-01T06:11:23;2.53;;;1.63;;
31306;SDS011;17935;51.120;13.132;2023-08-01T06:13:49;1.98;;;1.60;;
31306;SDS011;17935;51.120;13.132;2023-08-01T06:16:15;2.13;;;1.70;;
31306;SDS011;17935;51.120;13.132;2023-08-01T06:18:41;3.05;;;1.85;;
31306;SDS011;17935;51.120;13.132;2023-08-01T06:21:07;2.92;;;1.65;;
31306;SDS011;17935;51.120;13.132;2023-08-01T06:23:33;2.80;;;2.08;;
31306;SDS011;17935;51.120;13.132;2023-08-01T06:25:59;2.78;;;2.00;;
31306;SDS011;17935;51.120;13.132;2023-08-01T06:28:25;3.80;;;2.35;;
31306;SDS011;17935;51.120;13.132;2023-08-01T06:30:51;4.07;;;2.33;;
31306;SDS011;17935;51.120;13.132;2023-08-01T06:33:17;4.45;;;2.45;;
31306;SDS011;17935;51.120;13.132;2023-08-01T06:35:43;6.00;;;3.05;;
31306;SDS011;17935;51.120;13.132;2023-08-01T06:38:09;6.38;;;2.47;;
31306;SDS011;17935;51.120;13.132;2023-08-01T06:40:35;4.75;;;2.38;;
31306;SDS011;17935;51.120;13.132;2023-08-01T06:43:01;5.18;;;2.25;;
31306;SDS011;17935;51.120;13.132;2023-08-01T06:45:27;3.33;;;2.50;;
31306;SDS011;17935;51.120;13.132;2023-08-01T06:47:53;4.32;;;2.75;;
31306;SDS011;17935;51.120;13.132;2023-08-01T06:50:19;2.50;;;2.17;;
31306;SDS011;17935;51.120;13.132;2023-08-01T06:52:45;4.00;;;3.03;;
31306;SDS011;17935;51.120;13.132;2023-08-01T06:55:11;3.25;;;2.40;;
31306;SDS011;17935;51.120;13.132;2023-08-01T06:57:37;3.55;;;2.45;;
31306;SDS011;17935;51.120;13.132;2023-08-01T07:00:03;5.15;;;2.53;;
31306;SDS011;17935;51.120;13.132;2023-08-01T07:02:29;3.80;;;2.40;;
31306;SDS011;17935;51.120;13.132;2023-08-01T07:04:55;5.53;;;2.08;;
31306;SDS011;17935;51.120;13.132;2023-08-01T07:07:21;2.85;;;2.20;;
31306;SDS011;17935;51.120;13.132;2023-08-01T07:09:47;3.40;;;2.45;;
31306;SDS011;17935;51.120;13.132;2023-08-01T07:12:13;2.88;;;2.30;;
31306;SDS011;17935;51.120;13.132;2023-08-01T07:14:39;4.57;;;2.80;;
31306;SDS011;17935;51.120;13.132;2023-08-01T07:17:05;6.93;;;2.20;;
31306;SDS011;17935;51.120;13.132;2023-08-01T07:19:31;3.97;;;2.30;;
31306;SDS011;17935;51.120;13.132;2023-08-01T07:21:57;2.97;;;2.08;;
31306;SDS011;17935;51.120;13.132;2023-08-01T07:24:23;4.82;;;2.35;;
31306;SDS011;17935;51.120;13.132;2023-08-01T07:26:49;2.55;;;2.28;;
31306;SDS011;17935;51.120;13.132;2023-08-01T07:29:15;3.80;;;2.55;;
31306;SDS011;17935;51.120;13.132;2023-08-01T07:31:41;3.92;;;1.98;;
31306;SDS011;17935;51.120;13.132;2023-08-01T07:34:08;3.53;;;2.25;;
31306;SDS011;17935;51.120;13.132;2023-08-01T07:36:34;4.03;;;2.17;;
31306;SDS011;17935;51.120;13.132;2023-08-01T07:39:00;5.15;;;2.58;;
31306;SDS011;17935;51.120;13.132;2023-08-01T07:41:26;3.70;;;2.25;;
31306;SDS011;17935;51.120;13.132;2023-08-01T07:43:52;3.08;;;2.30;;
31306;SDS011;17935;51.120;13.132;2023-08-01T07:46:18;7.95;;;2.65;;
31306;SDS011;17935;51.120;13.132;2023-08-01T07:48:44;3.83;;;2.10;;
31306;SDS011;17935;51.120;13.132;2023-08-01T07:51:10;6.00;;;2.60;;
31306;SDS011;17935;51.120;13.132;2023-08-01T07:53:36;2.58;;;1.70;;
31306;SDS011;17935;51.120;13.132;2023-08-01T07:56:03;2.22;;;1.70;;
31306;SDS011;17935;51.120;13.132;2023-08-01T08:01:25;2.25;;;1.65;;
31306;SDS011;17935;51.120;13.132;2023-08-01T08:03:51;2.20;;;1.73;;
31306;SDS011;17935;51.120;13.132;2023-08-01T08:06:17;2.67;;;1.67;;
31306;SDS011;17935;51.120;13.132;2023-08-01T08:08:46;4.25;;;1.85;;
31306;SDS011;17935;51.120;13.132;2023-08-01T08:11:15;3.55;;;1.90;;
31306;SDS011;17935;51.120;13.132;2023-08-01T08:13:41;3.78;;;1.42;;
31306;SDS011;17935;51.120;13.132;2023-08-01T08:16:10;1.73;;;1.38;;
31306;SDS011;17935;51.120;13.132;2023-08-01T08:21:07;1.33;;;1.23;;
31306;SDS011;17935;51.120;13.132;2023-08-01T08:23:33;3.42;;;1.25;;
31306;SDS011;17935;51.120;13.132;2023-08-01T08:26:18;1.90;;;1.20;;
31306;SDS011;17935;51.120;13.132;2023-08-01T08:31:22;2.00;;;1.33;;
31306;SDS011;17935;51.120;13.132;2023-08-01T08:33:48;2.08;;;1.08;;
31306;SDS011;17935;51.120;13.132;2023-08-01T08:36:15;3.63;;;1.33;;
31306;SDS011;17935;51.120;13.132;2023-08-01T08:38:41;4.32;;;1.25;;
31306;SDS011;17935;51.120;13.132;2023-08-01T08:41:11;1.95;;;1.50;;
31306;SDS011;17935;51.120;13.132;2023-08-01T08:43:39;4.10;;;1.23;;
31306;SDS011;17935;51.120;13.132;2023-08-01T08:46:05;3.38;;;1.50;;
31306;SDS011;17935;51.120;13.132;2023-08-01T08:48:32;1.45;;;1.27;;
31306;SDS011;17935;51.120;13.132;2023-08-01T08:50:59;4.38;;;1.85;;
31306;SDS011;17935;51.120;13.132;2023-08-01T08:53:25;3.47;;;1.60;;
31306;SDS011;17935;51.120;13.132;2023-08-01T08:55:52;2.15;;;1.55;;
31306;SDS011;17935;51.120;13.132;2023-08-01T08:58:18;5.10;;;1.85;;
31306;SDS011;17935;51.120;13.132;2023-08-01T09:00:44;1.67;;;1.50;;
31306;SDS011;17935;51.120;13.132;2023-08-01T09:06:08;2.15;;;1.58;;
31306;SDS011;17935;51.120;13.132;2023-08-01T09:08:36;3.60;;;1.42;;
31306;SDS011;17935;51.120;13.132;2023-08-01T09:11:03;1.90;;;1.38;;
31306;SDS011;17935;51.120;13.132;2023-08-01T09:13:29;2.78;;;1.30;;
31306;SDS011;17935;51.120;13.132;2023-08-01T09:15:56;1.95;;;1.30;;
31306;SDS011;17935;51.120;13.132;2023-08-01T09:18:22;1.00;;;0.90;;
31306;SDS011;17935;51.120;13.132;2023-08-01T09:20:49;1.30;;;0.90;;
31306;SDS011;17935;51.120;13.132;2023-08-01T09:26:36;1.45;;;1.10;;
31306;SDS011;17935;51.120;13.132;2023-08-01T09:29:03;1.92;;;1.00;;
31306;SDS011;17935;51.120;13.132;2023-08-01T09:31:32;1.20;;;0.90;;
31306;SDS011;17935;51.120;13.132;2023-08-01T09:34:17;3.10;;;1.00;;
31306;SDS011;17935;51.120;13.132;2023-08-01T09:40:03;3.70;;;1.30;;
31306;SDS011;17935;51.120;13.132;2023-08-01T09:42:44;1.90;;;1.05;;
31306;SDS011;17935;51.120;13.132;2023-08-01T09:48:37;1.97;;;1.40;;
31306;SDS011;17935;51.120;13.132;2023-08-01T09:51:21;1.23;;;1.13;;
31306;SDS011;17935;51.120;13.132;2023-08-01T09:53:51;1.00;;;1.00;;
31306;SDS011;17935;51.120;13.132;2023-08-01T09:56:27;4.30;;;1.65;;
31306;SDS011;17935;51.120;13.132;2023-08-01T09:58:54;2.10;;;1.30;;
31306;SDS011;17935;51.120;13.132;2023-08-01T10:01:21;1.55;;;1.13;;
31306;SDS011;17935;51.120;13.132;2023-08-01T10:03:49;2.10;;;1.15;;
31306;SDS011;17935;51.120;13.132;2023-08-01T10:06:21;2.83;;;1.30;;
31306;SDS011;17935;51.120;13.132;2023-08-01T10:08:47;1.17;;;1.08;;
31306;SDS011;17935;51.120;13.132;2023-08-01T10:11:14;2.90;;;1.50;;
31306;SDS011;17935;51.120;13.132;2023-08-01T10:13:43;4.25;;;1.20;;
31306;SDS011;17935;51.120;13.132;2023-08-01T10:16:10;2.65;;;1.17;;
31306;SDS011;17935;51.120;13.132;2023-08-01T10:18:37;3.22;;;1.67;;
31306;SDS011;17935;51.120;13.132;2023-08-01T10:21:11;11.15;;;3.92;;
31306;SDS011;17935;51.120;13.132;2023-08-01T10:23:37;2.20;;;1.20;;
31306;SDS011;17935;51.120;13.132;2023-08-01T10:26:05;3.22;;;1.20;;
31306;SDS011;17935;51.120;13.132;2023-08-01T10:28:32;1.45;;;0.98;;
31306;SDS011;17935;51.120;13.132;2023-08-01T10:33:33;3.22;;;1.20;;
31306;SDS011;17935;51.120;13.132;2023-08-01T10:36:16;2.17;;;0.90;;
31306;SDS011;17935;51.120;13.132;2023-08-01T10:42:01;2.15;;;0.90;;
31306;SDS011;17935;51.120;13.132;2023-08-01T10:44:30;4.45;;;0.70;;
31306;SDS011;17935;51.120;13.132;2023-08-01T10:53:47;3.28;;;0.95;;
31306;SDS011;17935;51.120;13.132;2023-08-01T10:56:32;1.20;;;0.90;;
31306;SDS011;17935;51.120;13.132;2023-08-01T10:58:59;2.90;;;0.80;;
31306;SDS011;17935;51.120;13.132;2023-08-01T11:04:36;1.98;;;1.20;;
31306;SDS011;17935;51.120;13.132;2023-08-01T11:13:43;2.38;;;2.00;;
31306;SDS011;17935;51.120;13.132;2023-08-01T11:25:37;5.00;;;1.52;;
31306;SDS011;17935;51.120;13.132;2023-08-01T11:34:47;5.47;;;1.40;;
31306;SDS011;17935;51.120;13.132;2023-08-01T11:40:14;3.45;;;1.10;;
31306;SDS011;17935;51.120;13.132;2023-08-01T11:42:50;1.17;;;0.98;;
31306;SDS011;17935;51.120;13.132;2023-08-01T11:50:58;3.05;;;1.23;;
31306;SDS011;17935;51.120;13.132;2023-08-01T11:53:28;2.33;;;1.10;;
31306;SDS011;17935;51.120;13.132;2023-08-01T11:56:05;1.55;;;1.02;;
31306;SDS011;17935;51.120;13.132;2023-08-01T11:58:45;1.23;;;0.95;;
31306;SDS011;17935;51.120;13.132;2023-08-01T12:01:17;2.08;;;1.50;;
31306;SDS011;17935;51.120;13.132;2023-08-01T12:03:48;3.15;;;0.80;;
31306;SDS011;17935;51.120;13.132;2023-08-01T12:06:14;2.10;;;1.15;;
31306;SDS011;17935;51.120;13.132;2023-08-01T12:08:42;0.80;;;0.70;;
31306;SDS011;17935;51.120;13.132;2023-08-01T12:11:18;1.20;;;1.10;;
31306;SDS011;17935;51.120;13.132;2023-08-01T12:13:47;1.30;;;1.20;;
31306;SDS011;17935;51.120;13.132;2023-08-01T12:16:14;2.45;;;0.88;;
31306;SDS011;17935;51.120;13.132;2023-08-01T12:18:42;1.48;;;1.20;;
31306;SDS011;17935;51.120;13.132;2023-08-01T12:21:09;1.58;;;0.95;;
31306;SDS011;17935;51.120;13.132;2023-08-01T12:23:35;1.33;;;1.20;;
31306;SDS011;17935;51.120;13.132;2023-08-01T12:26:02;2.90;;;1.25;;
31306;SDS011;17935;51.120;13.132;2023-08-01T12:28:28;2.15;;;1.30;;
31306;SDS011;17935;51.120;13.132;2023-08-01T12:31:00;2.38;;;1.05;;
31306;SDS011;17935;51.120;13.132;2023-08-01T12:33:26;1.42;;;1.33;;
31306;SDS011;17935;51.120;13.132;2023-08-01T12:35:52;3.33;;;1.40;;
31306;SDS011;17935;51.120;13.132;2023-08-01T12:38:21;1.17;;;1.08;;
31306;SDS011;17935;51.120;13.132;2023-08-01T12:40:50;3.60;;;1.20;;
31306;SDS011;17935;51.120;13.132;2023-08-01T12:43:16;1.10;;;1.00;;
31306;SDS011;17935;51.120;13.132;2023-08-01T12:45:42;2.33;;;1.30;;
31306;SDS011;17935;51.120;13.132;2023-08-01T12:48:09;2.17;;;1.38;;
31306;SDS011;17935;51.120;13.132;2023-08-01T12:50:35;1.23;;;1.13;;
31306;SDS011;17935;51.120;13.132;2023-08-01T12:53:01;2.90;;;1.10;;
31306;SDS011;17935;51.120;13.132;2023-08-01T12:55:27;1.20;;;1.10;;
31306;SDS011;17935;51.120;13.132;2023-08-01T12:57:53;3.15;;;1.10;;
31306;SDS011;17935;51.120;13.132;2023-08-01T13:00:19;4.72;;;1.80;;
31306;SDS011;17935;51.120;13.132;2023-08-01T13:02:48;2.45;;;1.58;;
31306;SDS011;17935;51.120;13.132;2023-08-01T13:05:15;2.63;;;1.85;;
31306;SDS011;17935;51.120;13.132;2023-08-01T13:07:41;4.55;;;1.85;;
31306;SDS011;17935;51.120;13.132;2023-08-01T13:10:07;4.78;;;2.22;;
31306;SDS011;17935;51.120;13.132;2023-08-01T13:12:34;2.53;;;1.98;;
31306;SDS011;17935;51.120;13.132;2023-08-01T13:15:00;2.35;;;1.75;;
31306;SDS011;17935;51.120;13.132;2023-08-01T13:17:26;1.98;;;1.83;;
31306;SDS011;17935;51.120;13.132;2023-08-01T13:19:52;2.67;;;1.98;;
31306;SDS011;17935;51.120;13.132;2023-08-01T13:22:18;4.30;;;2.63;;
31306;SDS011;17935;51.120;13.132;2023-08-01T13:24:45;2.53;;;2.08;;
31306;SDS011;17935;51.120;13.132;2023-08-01T13:27:12;4.57;;;2.70;;
31306;SDS011;17935;51.120;13.132;2023-08-01T13:29:38;2.63;;;2.38;;
31306;SDS011;17935;51.120;13.132;2023-08-01T13:32:05;2.75;;;2.40;;
31306;SDS011;17935;51.120;13.132;2023-08-01T13:34:32;5.50;;;2.20;;
31306;SDS011;17935;51.120;13.132;2023-08-01T13:36:58;5.30;;;3.00;;
31306;SDS011;17935;51.120;13.132;2023-08-01T13:39:24;8.93;;;3.47;;
31306;SDS011;17935;51.120;13.132;2023-08-01T13:41:50;5.82;;;3.20;;
31306;SDS011;17935;51.120;13.132;2023-08-01T13:44:16;4.82;;;2.70;;
31306;SDS011;17935;51.120;13.132;2023-08-01T13:46:43;6.03;;;3.40;;
31306;SDS011;17935;51.120;13.132;2023-08-01T13:49:09;4.25;;;2.95;;
31306;SDS011;17935;51.120;13.132;2023-08-01T13:51:35;4.65;;;2.80;;
31306;SDS011;17935;51.120;13.132;2023-08-01T13:54:01;5.57;;;3.00;;
31306;SDS011;17935;51.120;13.132;2023-08-01T13:56:27;6.13;;;3.92;;
31306;SDS011;17935;51.120;13.132;2023-08-01T13:58:53;5.05;;;3.08;;
31306;SDS011;17935;51.120;13.132;2023-08-01T14:01:19;3.90;;;3.42;;
31306;SDS011;17935;51.120;13.132;2023-08-01T14:03:45;5.90;;;3.53;;
31306;SDS011;17935;51.120;13.132;2023-08-01T14:06:12;3.53;;;3.22;;
31306;SDS011;17935;51.120;13.132;2023-08-01T14:45:29;5.38;;;3.47;;
31306;SDS011;17935;51.120;13.132;2023-08-01T15:34:29;2.50;;;2.25;;
31306;SDS011;17935;51.120;13.132;2023-08-01T15:36:55;2.65;;;1.52;;
31306;SDS011;17935;51.120;13.132;2023-08-01T15:39:24;2.50;;;1.48;;
31306;SDS011;17935;51.120;13.132;2023-08-01T15:41:50;2.28;;;1.70;;
31306;SDS011;17935;51.120;13.132;2023-08-01T15:44:16;7.75;;;1.48;;
31306;SDS011;17935;51.120;13.132;2023-08-01T15:46:45;2.35;;;1.60;;
31306;SDS011;17935;51.120;13.132;2023-08-01T15:49:11;6.82;;;1.80;;
31306;SDS011;17935;51.120;13.132;2023-08-01T15:51:40;2.70;;;1.42;;
31306;SDS011;17935;51.120;13.132;2023-08-01T15:54:11;3.33;;;1.60;;
31306;SDS011;17935;51.120;13.132;2023-08-01T15:56:40;2.40;;;1.58;;
31306;SDS011;17935;51.120;13.132;2023-08-01T15:59:12;2.08;;;1.23;;
31306;SDS011;17935;51.120;13.132;2023-08-01T16:01:43;1.63;;;1.45;;
31306;SDS011;17935;51.120;13.132;2023-08-01T16:04:12;1.50;;;1.40;;
31306;SDS011;17935;51.120;13.132;2023-08-01T16:06:43;2.53;;;1.73;;
31306;SDS011;17935;51.120;13.132;2023-08-01T16:09:11;2.55;;;1.67;;
31306;SDS011;17935;51.120;13.132;2023-08-01T16:11:37;1.98;;;1.77;;
31306;SDS011;17935;51.120;13.132;2023-08-01T16:14:04;1.70;;;1.60;;
31306;SDS011;17935;51.120;13.132;2023-08-01T16:16:30;2.92;;;1.58;;
31306;SDS011;17935;51.120;13.132;2023-08-01T16:18:57;2.83;;;2.17;;
31306;SDS011;17935;51.120;13.132;2023-08-01T16:21:23;5.63;;;1.80;;
31306;SDS011;17935;51.120;13.132;2023-08-01T16:23:49;1.75;;;1.65;;
31306;SDS011;17935;51.120;13.132;2023-08-01T16:26:15;3.95;;;2.08;;
31306;SDS011;17935;51.120;13.132;2023-08-01T16:28:41;5.00;;;1.92;;
31306;SDS011;17935;51.120;13.132;2023-08-01T16:31:07;9.05;;;2.38;;
31306;SDS011;17935;51.120;13.132;2023-08-01T16:33:33;3.42;;;2.28;;
31306;SDS011;17935;51.120;13.132;2023-08-01T16:35:59;4.18;;;2.40;;
31306;SDS011;17935;51.120;13.132;2023-08-01T16:38:25;5.95;;;2.20;;
31306;SDS011;17935;51.120;13.132;2023-08-01T16:40:51;3.20;;;2.22;;
31306;SDS011;17935;51.120;13.132;2023-08-01T16:43:17;2.53;;;2.20;;
31306;SDS011;17935;51.120;13.132;2023-08-01T16:45:43;3.80;;;2.47;;
31306;SDS011;17935;51.120;13.132;2023-08-01T16:48:09;6.70;;;3.55;;
31306;SDS011;17935;51.120;13.132;2023-08-01T16:50:35;3.08;;;2.13;;
31306;SDS011;17935;51.120;13.132;2023-08-01T16:53:01;2.47;;;2.08;;
31306;SDS011;17935;51.120;13.132;2023-08-01T16:55:27;6.00;;;2.00;;
31306;SDS011;17935;51.120;13.132;2023-08-01T16:57:53;3.15;;;2.10;;
31306;SDS011;17935;51.120;13.132;2023-08-01T17:00:19;3.45;;;2.08;;
31306;SDS011;17935;51.120;13.132;2023-08-01T17:02:45;2.83;;;2.08;;